Nick Of Time III — JO111S — position and weather

sailwx.info

Track history (hours):
 
Tides and Currents Weather Stations Pressure Air Temp Water Temp Dewpoint Dewpoint Depression Visibility Wind Speed Wind Dir Waves Ship Positions

Nick Of Time III

Last reported at 2018-Jul-08 01:51 UTC. Time now 2018-Jul-18 07:04 UTC.
Position S 27°52' E 153°21'.
Warning: this ship's position is 10 days out of date.

Length 16 m.

MMSI: 503024320.

Date/timePositionNaut miles runAvg speedWind from/ knotsBaromVisibWave heightAir tempDewpointWater temp
2018-Jul-08 01:51S 27°52' E 153°21'1 3.2
2018-Jul-08 01:30S 27°51' E 153°21'3 5.3
2018-Jul-08 01:00S 27°52' E 153°24'3 5.2
2018-Jul-08 00:30S 27°50' E 153°24'3 6.1
2018-Jul-08 00:00S 27°47' E 153°26'3 5.5
2018-Jul-07 23:30S 27°44' E 153°26'2 0.2
2018-Jul-07 14:59S 27°44' E 153°24'0 0.0
2018-Jul-07 14:29S 27°44' E 153°24'0 0.0
2018-Jul-07 13:59S 27°44' E 153°24'0 0.0
2018-Jul-07 13:29S 27°44' E 153°24'0 0.0
2018-Jul-07 12:59S 27°44' E 153°24'0 0.0
2018-Jul-07 12:29S 27°44' E 153°24'0 0.0
2018-Jul-07 11:59S 27°44' E 153°24'0 0.0
2018-Jul-07 11:29S 27°44' E 153°24'0 0.0
2018-Jul-07 10:59S 27°44' E 153°24'0 0.0
2018-Jul-07 10:20S 27°44' E 153°24'0 0.0
2018-Jul-07 09:59S 27°44' E 153°24'0 0.0
2018-Jul-07 09:29S 27°44' E 153°24'0 0.0
2018-Jul-07 08:59S 27°44' E 153°24'0 0.0
2018-Jul-07 08:29S 27°44' E 153°24'0 0.0
2018-Jul-07 07:59S 27°44' E 153°24'1 2.3
2018-Jul-07 07:29S 27°43' E 153°24'0 0.0
2018-Jul-07 06:59S 27°43' E 153°24'0 0.1
2018-Jul-07 06:29S 27°43' E 153°24'0 0.0
2018-Jul-07 05:59S 27°43' E 153°24'0 0.1
2018-Jul-07 05:28S 27°43' E 153°24'1 2.2
2018-Jul-07 05:00S 27°42' E 153°24'2 4.8
2018-Jul-07 04:30S 27°44' E 153°24'2 4.2
2018-Jul-07 04:00S 27°46' E 153°26'2 3.5
2018-Jul-07 03:26S 27°48' E 153°26'0 0.0
2018-Jul-07 02:59S 27°48' E 153°26'0 0.0
2018-Jul-07 02:30S 27°48' E 153°26'3 5.4
2018-Jul-07 02:00S 27°51' E 153°24'2 4.2
2018-Jul-07 01:30S 27°52' E 153°23'2 3.7
2018-Jul-07 00:59S 27°52' E 153°21'  
2018-Jul-01 01:10S 27°52' E 153°21'1 4.2
2018-Jul-01 01:00S 27°51' E 153°21'2 4.7
2018-Jul-01 00:30S 27°50' E 153°23'2 4.3
2018-Jun-30 23:58S 27°49' E 153°25'0 0.0
2018-Jun-30 23:28S 27°49' E 153°25'0 0.0
2018-Jun-30 22:58S 27°49' E 153°25'0 0.1
2018-Jun-30 22:28S 27°49' E 153°25'0 0.1
2018-Jun-30 21:58S 27°49' E 153°25'0 0.0
2018-Jun-30 21:28S 27°49' E 153°25'0 0.0
2018-Jun-30 20:58S 27°49' E 153°25'0 0.0
2018-Jun-30 20:28S 27°49' E 153°25'0 0.0
2018-Jun-30 19:58S 27°49' E 153°25'0 0.0
2018-Jun-30 19:28S 27°49' E 153°25'0 0.1
2018-Jun-30 18:58S 27°49' E 153°25'0 0.1
2018-Jun-30 18:28S 27°49' E 153°25'0 0.0
2018-Jun-30 17:58S 27°49' E 153°25'0 0.1
2018-Jun-30 17:28S 27°49' E 153°25'0 0.0
2018-Jun-30 16:58S 27°49' E 153°25'0 0.0
2018-Jun-30 16:28S 27°49' E 153°25'0 0.0
2018-Jun-30 15:58S 27°49' E 153°25'0 0.0
2018-Jun-30 15:28S 27°49' E 153°25'0 0.0
2018-Jun-30 14:58S 27°49' E 153°25'0 0.0
2018-Jun-30 14:28S 27°49' E 153°25'0 0.0
2018-Jun-30 13:58S 27°49' E 153°25'0 0.0
2018-Jun-30 13:22S 27°49' E 153°25'0 0.0
2018-Jun-30 12:58S 27°49' E 153°25'0 0.0
2018-Jun-30 12:28S 27°49' E 153°25'0 0.0
2018-Jun-30 11:58S 27°49' E 153°25'0 0.0
2018-Jun-30 11:28S 27°49' E 153°25'0 0.0
2018-Jun-30 10:58S 27°49' E 153°25'0 0.0
2018-Jun-30 10:28S 27°49' E 153°25'0 0.0
2018-Jun-30 09:58S 27°49' E 153°25'0 0.0
2018-Jun-30 09:28S 27°49' E 153°25'0 0.0
2018-Jun-30 08:58S 27°49' E 153°25'0 0.0
2018-Jun-30 08:28S 27°49' E 153°25'0 0.0
2018-Jun-30 07:58S 27°49' E 153°25'0 0.1
2018-Jun-30 07:28S 27°49' E 153°25'0 0.1
2018-Jun-30 06:58S 27°49' E 153°25'0 0.0
2018-Jun-30 06:28S 27°49' E 153°25'0 0.0
2018-Jun-30 05:58S 27°49' E 153°25'0 0.0
2018-Jun-30 05:28S 27°49' E 153°25'0 0.0
2018-Jun-30 04:58S 27°49' E 153°25'0 0.0
2018-Jun-30 04:28S 27°49' E 153°25'0 0.0
2018-Jun-30 03:58S 27°49' E 153°25'0 0.0
2018-Jun-30 03:28S 27°49' E 153°25'0 0.0
2018-Jun-30 02:58S 27°49' E 153°25'0 0.0
2018-Jun-30 02:25S 27°49' E 153°25'0 0.0
2018-Jun-30 01:58S 27°49' E 153°25'0 0.0
2018-Jun-30 01:28S 27°49' E 153°25'0 0.0
2018-Jun-30 00:58S 27°49' E 153°25'2 5.2
2018-Jun-30 00:29S 27°51' E 153°24'3 7.2
2018-Jun-30 00:00S 27°54' E 153°25'3 5.1
2018-Jun-29 23:27S 27°56' E 153°28'1 3.2
2018-Jun-29 23:00S 27°57' E 153°29'3 6.6
2018-Jun-29 22:30S 27°56' E 153°25'2 3.5
2018-Jun-29 21:55S 27°58' E 153°25'0 0.0
2018-Jun-29 21:28S 27°58' E 153°25'0 0.2
2018-Jun-29 21:00S 27°58' E 153°25'1 0.8
2018-Jun-29 19:22S 27°57' E 153°25'0 0.0
2018-Jun-29 18:55S 27°57' E 153°25'0 0.0
2018-Jun-29 18:28S 27°57' E 153°25'0 0.0
2018-Jun-29 17:55S 27°57' E 153°25'0 0.0
2018-Jun-29 17:28S 27°57' E 153°25'0 0.0
2018-Jun-29 16:58S 27°57' E 153°25'0 0.0
2018-Jun-29 16:28S 27°57' E 153°25'0 0.0
2018-Jun-29 15:58S 27°57' E 153°25'0 0.0
2018-Jun-29 15:22S 27°57' E 153°25'0 0.0
2018-Jun-29 14:58S 27°57' E 153°25'0 0.0
2018-Jun-29 14:28S 27°57' E 153°25'0 0.0
2018-Jun-29 13:58S 27°57' E 153°25'0 0.0
2018-Jun-29 13:28S 27°57' E 153°25'0 0.0
2018-Jun-29 12:52S 27°57' E 153°25'0 0.0
2018-Jun-29 12:25S 27°57' E 153°25'0 0.0
2018-Jun-29 11:58S 27°57' E 153°25'0 0.0
2018-Jun-29 11:28S 27°57' E 153°25'0 0.0
2018-Jun-29 10:58S 27°57' E 153°25'0 0.0
2018-Jun-29 10:25S 27°57' E 153°25'0 0.0
2018-Jun-29 09:58S 27°57' E 153°25'0 0.0
2018-Jun-29 09:25S 27°57' E 153°25'0 0.0
2018-Jun-29 08:49S 27°57' E 153°25'0 0.0
2018-Jun-29 08:25S 27°57' E 153°25'0 0.0
2018-Jun-29 07:58S 27°57' E 153°25'0 0.0
2018-Jun-29 07:25S 27°57' E 153°25'0 0.0
2018-Jun-29 06:58S 27°57' E 153°25'0 0.0
2018-Jun-29 06:25S 27°57' E 153°25'0 0.0
2018-Jun-29 05:58S 27°57' E 153°25'0 0.0
2018-Jun-29 05:22S 27°57' E 153°25'1 1.5
2018-Jun-29 05:01S 27°56' E 153°25'3 5.6
2018-Jun-29 04:29S 27°54' E 153°25'2 4.9
2018-Jun-29 04:00S 27°52' E 153°23'2 4.7
2018-Jun-29 03:30S 27°52' E 153°20'0 0.5
2018-Jun-29 02:59S 27°52' E 153°20'0 0.0
2018-Jun-29 02:29S 27°52' E 153°20'0 0.0
2018-Jun-29 01:59S 27°52' E 153°20'  
Track history (hours):
 
Tides and Currents Weather Stations Pressure Air Temp Water Temp Dewpoint Dewpoint Depression Visibility Wind Speed Wind Dir Waves Ship Positions

Nick Of Time III

Last reported at 2018-Jul-08 01:51 UTC. Time now 2018-Jul-18 07:04 UTC.
Position S 27°52' E 153°21'.
Warning: this ship's position is 10 days out of date.

Length 16 m.

MMSI: 503024320.

Date/timePositionNaut miles runAvg speedWind from/ knotsBaromVisibWave heightAir tempDewpointWater temp
2018-Jul-08 01:51S 27°52' E 153°21'1 3.2
2018-Jul-08 01:30S 27°51' E 153°21'3 5.3
2018-Jul-08 01:00S 27°52' E 153°24'3 5.2
2018-Jul-08 00:30S 27°50' E 153°24'3 6.1
2018-Jul-08 00:00S 27°47' E 153°26'3 5.5
2018-Jul-07 23:30S 27°44' E 153°26'2 0.2
2018-Jul-07 14:59S 27°44' E 153°24'0 0.0
2018-Jul-07 14:29S 27°44' E 153°24'0 0.0
2018-Jul-07 13:59S 27°44' E 153°24'0 0.0
2018-Jul-07 13:29S 27°44' E 153°24'0 0.0
2018-Jul-07 12:59S 27°44' E 153°24'0 0.0
2018-Jul-07 12:29S 27°44' E 153°24'0 0.0
2018-Jul-07 11:59S 27°44' E 153°24'0 0.0
2018-Jul-07 11:29S 27°44' E 153°24'0 0.0
2018-Jul-07 10:59S 27°44' E 153°24'0 0.0
2018-Jul-07 10:20S 27°44' E 153°24'0 0.0
2018-Jul-07 09:59S 27°44' E 153°24'0 0.0
2018-Jul-07 09:29S 27°44' E 153°24'0 0.0
2018-Jul-07 08:59S 27°44' E 153°24'0 0.0
2018-Jul-07 08:29S 27°44' E 153°24'0 0.0
2018-Jul-07 07:59S 27°44' E 153°24'1 2.3
2018-Jul-07 07:29S 27°43' E 153°24'0 0.0
2018-Jul-07 06:59S 27°43' E 153°24'0 0.1
2018-Jul-07 06:29S 27°43' E 153°24'0 0.0
2018-Jul-07 05:59S 27°43' E 153°24'0 0.1
2018-Jul-07 05:28S 27°43' E 153°24'1 2.2
2018-Jul-07 05:00S 27°42' E 153°24'2 4.8
2018-Jul-07 04:30S 27°44' E 153°24'2 4.2
2018-Jul-07 04:00S 27°46' E 153°26'2 3.5
2018-Jul-07 03:26S 27°48' E 153°26'0 0.0
2018-Jul-07 02:59S 27°48' E 153°26'0 0.0
2018-Jul-07 02:30S 27°48' E 153°26'3 5.4
2018-Jul-07 02:00S 27°51' E 153°24'2 4.2
2018-Jul-07 01:30S 27°52' E 153°23'2 3.7
2018-Jul-07 00:59S 27°52' E 153°21'  
2018-Jul-01 01:10S 27°52' E 153°21'1 4.2
2018-Jul-01 01:00S 27°51' E 153°21'2 4.7
2018-Jul-01 00:30S 27°50' E 153°23'2 4.3
2018-Jun-30 23:58S 27°49' E 153°25'0 0.0
2018-Jun-30 23:28S 27°49' E 153°25'0 0.0
2018-Jun-30 22:58S 27°49' E 153°25'0 0.1
2018-Jun-30 22:28S 27°49' E 153°25'0 0.1
2018-Jun-30 21:58S 27°49' E 153°25'0 0.0
2018-Jun-30 21:28S 27°49' E 153°25'0 0.0
2018-Jun-30 20:58S 27°49' E 153°25'0 0.0
2018-Jun-30 20:28S 27°49' E 153°25'0 0.0
2018-Jun-30 19:58S 27°49' E 153°25'0 0.0
2018-Jun-30 19:28S 27°49' E 153°25'0 0.1
2018-Jun-30 18:58S 27°49' E 153°25'0 0.1
2018-Jun-30 18:28S 27°49' E 153°25'0 0.0
2018-Jun-30 17:58S 27°49' E 153°25'0 0.1
2018-Jun-30 17:28S 27°49' E 153°25'0 0.0
2018-Jun-30 16:58S 27°49' E 153°25'0 0.0
2018-Jun-30 16:28S 27°49' E 153°25'0 0.0
2018-Jun-30 15:58S 27°49' E 153°25'0 0.0
2018-Jun-30 15:28S 27°49' E 153°25'0 0.0
2018-Jun-30 14:58S 27°49' E 153°25'0 0.0
2018-Jun-30 14:28S 27°49' E 153°25'0 0.0
2018-Jun-30 13:58S 27°49' E 153°25'0 0.0
2018-Jun-30 13:22S 27°49' E 153°25'0 0.0
2018-Jun-30 12:58S 27°49' E 153°25'0 0.0
2018-Jun-30 12:28S 27°49' E 153°25'0 0.0
2018-Jun-30 11:58S 27°49' E 153°25'0 0.0
2018-Jun-30 11:28S 27°49' E 153°25'0 0.0
2018-Jun-30 10:58S 27°49' E 153°25'0 0.0
2018-Jun-30 10:28S 27°49' E 153°25'0 0.0
2018-Jun-30 09:58S 27°49' E 153°25'0 0.0
2018-Jun-30 09:28S 27°49' E 153°25'0 0.0
2018-Jun-30 08:58S 27°49' E 153°25'0 0.0
2018-Jun-30 08:28S 27°49' E 153°25'0 0.0
2018-Jun-30 07:58S 27°49' E 153°25'0 0.1
2018-Jun-30 07:28S 27°49' E 153°25'0 0.1
2018-Jun-30 06:58S 27°49' E 153°25'0 0.0
2018-Jun-30 06:28S 27°49' E 153°25'0 0.0
2018-Jun-30 05:58S 27°49' E 153°25'0 0.0
2018-Jun-30 05:28S 27°49' E 153°25'0 0.0
2018-Jun-30 04:58S 27°49' E 153°25'0 0.0
2018-Jun-30 04:28S 27°49' E 153°25'0 0.0
2018-Jun-30 03:58S 27°49' E 153°25'0 0.0
2018-Jun-30 03:28S 27°49' E 153°25'0 0.0
2018-Jun-30 02:58S 27°49' E 153°25'0 0.0
2018-Jun-30 02:25S 27°49' E 153°25'0 0.0
2018-Jun-30 01:58S 27°49' E 153°25'0 0.0
2018-Jun-30 01:28S 27°49' E 153°25'0 0.0
2018-Jun-30 00:58S 27°49' E 153°25'2 5.2
2018-Jun-30 00:29S 27°51' E 153°24'3 7.2
2018-Jun-30 00:00S 27°54' E 153°25'3 5.1
2018-Jun-29 23:27S 27°56' E 153°28'1 3.2
2018-Jun-29 23:00S 27°57' E 153°29'3 6.6
2018-Jun-29 22:30S 27°56' E 153°25'2 3.5
2018-Jun-29 21:55S 27°58' E 153°25'0 0.0
2018-Jun-29 21:28S 27°58' E 153°25'0 0.2
2018-Jun-29 21:00S 27°58' E 153°25'1 0.8
2018-Jun-29 19:22S 27°57' E 153°25'0 0.0
2018-Jun-29 18:55S 27°57' E 153°25'0 0.0
2018-Jun-29 18:28S 27°57' E 153°25'0 0.0
2018-Jun-29 17:55S 27°57' E 153°25'0 0.0
2018-Jun-29 17:28S 27°57' E 153°25'0 0.0
2018-Jun-29 16:58S 27°57' E 153°25'0 0.0
2018-Jun-29 16:28S 27°57' E 153°25'0 0.0
2018-Jun-29 15:58S 27°57' E 153°25'0 0.0
2018-Jun-29 15:22S 27°57' E 153°25'0 0.0
2018-Jun-29 14:58S 27°57' E 153°25'0 0.0
2018-Jun-29 14:28S 27°57' E 153°25'0 0.0
2018-Jun-29 13:58S 27°57' E 153°25'0 0.0
2018-Jun-29 13:28S 27°57' E 153°25'0 0.0
2018-Jun-29 12:52S 27°57' E 153°25'0 0.0
2018-Jun-29 12:25S 27°57' E 153°25'0 0.0
2018-Jun-29 11:58S 27°57' E 153°25'0 0.0
2018-Jun-29 11:28S 27°57' E 153°25'0 0.0
2018-Jun-29 10:58S 27°57' E 153°25'0 0.0
2018-Jun-29 10:25S 27°57' E 153°25'0 0.0
2018-Jun-29 09:58S 27°57' E 153°25'0 0.0
2018-Jun-29 09:25S 27°57' E 153°25'0 0.0
2018-Jun-29 08:49S 27°57' E 153°25'0 0.0
2018-Jun-29 08:25S 27°57' E 153°25'0 0.0
2018-Jun-29 07:58S 27°57' E 153°25'0 0.0
2018-Jun-29 07:25S 27°57' E 153°25'0 0.0
2018-Jun-29 06:58S 27°57' E 153°25'0 0.0
2018-Jun-29 06:25S 27°57' E 153°25'0 0.0
2018-Jun-29 05:58S 27°57' E 153°25'0 0.0
2018-Jun-29 05:22S 27°57' E 153°25'1 1.5
2018-Jun-29 05:01S 27°56' E 153°25'3 5.6
2018-Jun-29 04:29S 27°54' E 153°25'2 4.9
2018-Jun-29 04:00S 27°52' E 153°23'2 4.7
2018-Jun-29 03:30S 27°52' E 153°20'0 0.5
2018-Jun-29 02:59S 27°52' E 153°20'0 0.0
2018-Jun-29 02:29S 27°52' E 153°20'0 0.0
2018-Jun-29 01:59S 27°52' E 153°20'  

Dump ship's entire track history